Time,TemperatureF,DewpointF,PressureIn,WindDirection,WindDirectionDegrees,WindSpeedMPH,WindSpeedGustMPH,Humidity,HourlyPrecipIn,Conditions,Clouds,dailyrainin,SoftwareType,DateUTC
2013-01-02 00:00:00,21.7,18.2,29.02,West,270,5.8,5.8,86,0.00,CLR,SKC,0.00,WeatherDisplay:10.37,2013-01-02 05:00:00,
2013-01-02 00:01:00,21.7,18.2,29.03,West,270,5.8,5.8,86,0.00,CLR,SKC,0.00,WeatherDisplay:10.37,2013-01-02 05:01:00,
2013-01-02 00:05:00,21.7,18.2,29.02,West,270,6.0,6.0,86,0.00,CLR,SKC,0.00,WeatherDisplay:10.37,2013-01-02 05:05:00,
2013-01-02 00:10:00,21.6,18.0,29.02,West,270,4.6,4.6,86,0.00,CLR,SKC,0.00,WeatherDisplay:10.37,2013-01-02 05:10:00,
2013-01-02 00:15:00,21.4,17.8,29.02,NW,315,5.8,5.8,86,0.00,CLR,SKC,0.00,WeatherDisplay:10.37,2013-01-02 05:15:00,
2013-01-02 00:20:00,21.2,17.7,29.02,NW,315,8.1,8.1,86,0.00,CLR,SKC,0.00,WeatherDisplay:10.37,2013-01-02 05:20:00,
2013-01-02 00:25:00,21.2,17.7,29.02,NW,315,4.6,4.6,86,0.00,CLR,SKC,0.00,WeatherDisplay:10.37,2013-01-02 05:25:00,
2013-01-02 00:30:00,21.2,17.7,29.02,NW,315,4.6,4.6,86,0.00,CLR,SKC,0.00,WeatherDisplay:10.37,2013-01-02 05:30:00,
2013-01-02 00:35:00,21.0,17.8,29.02,NW,315,5.8,5.8,87,0.00,CLR,SKC,0.00,WeatherDisplay:10.37,2013-01-02 05:35:00,
2013-01-02 00:40:00,21.0,17.5,29.02,NW,315,6.9,6.9,86,0.00,CLR,SKC,0.00,WeatherDisplay:10.37,2013-01-02 05:40:00,
2013-01-02 00:45:00,20.8,17.0,29.02,NW,315,4.6,4.6,85,0.00,CLR,SKC,0.00,WeatherDisplay:10.37,2013-01-02 05:45:00,
2013-01-02 00:50:00,20.8,17.0,29.02,NW,315,5.8,5.8,85,0.00,CLR,SKC,0.00,WeatherDisplay:10.37,2013-01-02 05:50:00,
2013-01-02 00:55:00,20.8,17.0,29.02,NW,315,4.6,4.6,85,0.00,CLR,SKC,0.00,WeatherDisplay:10.37,2013-01-02 05:55:00,
2013-01-02 01:00:00,20.7,16.9,29.02,NW,315,3.5,3.5,85,0.00,CLR,SKC,0.00,WeatherDisplay:10.37,2013-01-02 06:00:00,
2013-01-02 01:05:00,20.7,16.9,29.02,NW,315,1.2,1.2,85,0.00,CLR,SKC,0.00,WeatherDisplay:10.37,2013-01-02 06:05:00,
2013-01-02 01:10:00,20.5,16.7,29.01,North,0,4.6,4.6,85,0.00,CLR,SKC,0.00,WeatherDisplay:10.37,2013-01-02 06:10:00,
2013-01-02 01:15:00,20.5,16.7,29.01,NW,315,4.6,4.6,85,0.00,CLR,SKC,0.00,WeatherDisplay:10.37,2013-01-02 06:15:00,
2013-01-02 01:20:00,20.5,16.7,29.01,NNW,338,3.5,3.5,85,0.00,CLR,SKC,0.00,WeatherDisplay:10.37,2013-01-02 06:20:00,
2013-01-02 01:25:00,20.5,16.7,29.01,NW,315,3.5,3.5,85,0.00,CLR,SKC,0.00,WeatherDisplay:10.37,2013-01-02 06:25:00,
2013-01-02 01:30:00,20.3,16.8,29.02,North,0,1.2,1.6,86,0.00,CLR,SKC,0.00,WeatherDisplay:10.37,2013-01-02 06:30:00,
2013-01-02 01:35:00,20.3,16.5,29.01,NW,315,5.8,5.8,85,0.00,CLR,SKC,0.00,WeatherDisplay:10.37,2013-01-02 06:35:00,
2013-01-02 01:40:00,20.3,16.5,29.01,NW,315,6.9,6.9,85,0.00,CLR,SKC,0.00,WeatherDisplay:10.37,2013-01-02 06:40:00,
2013-01-02 01:45:00,20.3,16.5,29.01,West,270,4.6,4.6,85,0.00,CLR,SKC,0.00,WeatherDisplay:10.37,2013-01-02 06:45:00,
2013-01-02 01:50:00,20.3,16.5,29.02,NW,315,4.6,4.6,85,0.00,CLR,SKC,0.00,WeatherDisplay:10.37,2013-01-02 06:50:00,
2013-01-02 01:55:00,20.3,16.5,29.02,NW,315,5.8,5.8,85,0.00,CLR,SKC,0.00,WeatherDisplay:10.37,2013-01-02 06:55:00,
2013-01-02 02:00:00,20.3,16.5,29.02,NW,315,0.0,0.0,85,0.00,CLR,SKC,0.00,WeatherDisplay:10.37,2013-01-02 07:00:00,
2013-01-02 02:05:00,20.3,16.5,29.02,NW,315,0.0,0.0,85,0.00,CLR,SKC,0.00,WeatherDisplay:10.37,2013-01-02 07:05:00,
2013-01-02 02:10:00,20.3,16.5,29.02,NW,315,5.8,5.8,85,0.00,CLR,SKC,0.00,WeatherDisplay:10.37,2013-01-02 07:10:00,
2013-01-02 02:15:00,20.3,16.5,29.02,NW,315,5.8,5.8,85,0.00,CLR,SKC,0.00,WeatherDisplay:10.37,2013-01-02 07:15:00,
2013-01-02 02:20:00,20.3,16.2,29.02,NW,315,5.8,5.8,84,0.00,CLR,SKC,0.00,WeatherDisplay:10.37,2013-01-02 07:20:00,
2013-01-02 02:25:00,20.3,16.0,29.03,West,270,6.9,6.9,83,0.00,CLR,SKC,0.00,WeatherDisplay:10.37,2013-01-02 07:25:00,
2013-01-02 02:30:00,20.3,16.0,29.03,NW,315,8.1,8.1,83,0.00,CLR,SKC,0.00,WeatherDisplay:10.37,2013-01-02 07:30:00,
2013-01-02 02:35:00,20.3,16.0,29.03,NW,315,5.8,5.8,83,0.00,CLR,SKC,0.00,WeatherDisplay:10.37,2013-01-02 07:35:00,
2013-01-02 02:40:00,20.3,16.2,29.04,NW,315,5.8,5.8,84,0.00,CLR,SKC,0.00,WeatherDisplay:10.37,2013-01-02 07:40:00,
2013-01-02 02:45:00,20.3,16.0,29.03,NW,315,5.8,5.8,83,0.00,CLR,SKC,0.00,WeatherDisplay:10.37,2013-01-02 07:45:00,
2013-01-02 02:50:00,20.3,16.0,29.04,NW,315,5.8,5.8,83,0.00,CLR,SKC,0.00,WeatherDisplay:10.37,2013-01-02 07:50:00,
2013-01-02 02:55:00,20.3,16.2,29.04,NW,315,3.5,3.5,84,0.00,CLR,SKC,0.00,WeatherDisplay:10.37,2013-01-02 07:55:00,
2013-01-02 03:00:00,20.3,16.0,29.05,NW,315,5.8,5.8,83,0.00,CLR,SKC,0.00,WeatherDisplay:10.37,2013-01-02 08:00:00,
2013-01-02 03:05:00,20.3,16.0,29.05,NW,315,3.8,3.8,83,0.00,CLR,SKC,0.00,WeatherDisplay:10.37,2013-01-02 08:05:00,
2013-01-02 03:10:00,20.3,16.2,29.05,NW,315,6.9,6.9,84,0.00,CLR,SKC,0.00,WeatherDisplay:10.37,2013-01-02 08:10:00,
2013-01-02 03:15:00,20.3,16.2,29.05,NNE,14,5.8,5.8,84,0.00,CLR,SKC,0.00,WeatherDisplay:10.37,2013-01-02 08:15:00,
2013-01-02 03:20:00,20.1,16.1,29.05,NNE,12,3.5,3.5,84,0.00,CLR,SKC,0.00,WeatherDisplay:10.37,2013-01-02 08:20:00,
2013-01-02 03:25:00,20.1,16.1,29.05,North,0,0.0,0.0,84,0.00,CLR,SKC,0.00,WeatherDisplay:10.37,2013-01-02 08:25:00,
2013-01-02 03:30:00,20.1,16.1,29.05,NW,315,3.5,3.5,84,0.00,CLR,SKC,0.00,WeatherDisplay:10.37,2013-01-02 08:30:00,
2013-01-02 03:35:00,20.1,16.1,29.06,NW,315,0.0,0.0,84,0.00,CLR,SKC,0.00,WeatherDisplay:10.37,2013-01-02 08:35:00,
2013-01-02 03:40:00,20.1,16.1,29.04,NNE,16,1.2,0.0,84,0.00,CLR,SKC,0.00,WeatherDisplay:10.37,2013-01-02 08:40:00,
2013-01-02 03:45:00,19.9,15.9,29.05,West,270,2.3,0.0,84,0.00,CLR,SKC,0.00,WeatherDisplay:10.37,2013-01-02 08:45:00,
2013-01-02 03:50:00,20.1,16.1,29.04,North,0,5.8,0.0,84,0.00,CLR,SKC,0.00,WeatherDisplay:10.37,2013-01-02 08:50:00,
2013-01-02 03:55:00,19.9,16.2,29.04,NW,315,3.5,3.5,85,0.00,CLR,SKC,0.00,WeatherDisplay:10.37,2013-01-02 08:55:00,
2013-01-02 04:00:00,19.9,15.9,29.04,NW,315,0.0,0.0,84,0.00,CLR,SKC,0.00,WeatherDisplay:10.37,2013-01-02 09:00:00,
2013-01-02 04:05:00,19.9,15.9,29.04,NW,315,0.0,0.0,84,0.00,CLR,SKC,0.00,WeatherDisplay:10.37,2013-01-02 09:05:00,
2013-01-02 04:10:00,19.9,15.9,29.04,NW,315,5.8,5.8,84,0.00,CLR,SKC,0.00,WeatherDisplay:10.37,2013-01-02 09:10:00,
2013-01-02 04:15:00,19.9,15.9,29.04,NW,315,3.5,3.5,84,0.00,CLR,SKC,0.00,WeatherDisplay:10.37,2013-01-02 09:15:00,
2013-01-02 04:20:00,19.9,15.6,29.04,NW,315,5.8,5.8,83,0.00,CLR,SKC,0.00,WeatherDisplay:10.37,2013-01-02 09:20:00,
2013-01-02 04:25:00,19.8,15.4,29.04,NNE,14,5.8,5.8,83,0.00,CLR,SKC,0.00,WeatherDisplay:10.37,2013-01-02 09:25:00,
2013-01-02 04:30:00,19.8,15.4,29.04,NW,315,4.6,4.6,83,0.00,CLR,SKC,0.00,WeatherDisplay:10.37,2013-01-02 09:30:00,
2013-01-02 04:35:00,19.8,15.7,29.04,West,270,4.6,0.0,84,0.00,CLR,SKC,0.00,WeatherDisplay:10.37,2013-01-02 09:35:00,
2013-01-02 04:40:00,19.8,15.7,29.04,NNE,14,0.0,0.0,84,0.00,CLR,SKC,0.00,WeatherDisplay:10.37,2013-01-02 09:40:00,
2013-01-02 04:45:00,19.6,15.5,29.04,North,0,0.0,0.0,84,0.00,CLR,SKC,0.00,WeatherDisplay:10.37,2013-01-02 09:45:00,
2013-01-02 04:50:00,19.6,15.5,29.04,North,0,0.0,0.0,84,0.00,CLR,SKC,0.00,WeatherDisplay:10.37,2013-01-02 09:50:00,
2013-01-02 04:55:00,19.4,15.4,29.04,NNE,15,0.0,0.0,84,0.00,CLR,SKC,0.00,WeatherDisplay:10.37,2013-01-02 09:55:00,
2013-01-02 05:00:00,19.4,15.4,29.04,North,0,0.0,0.0,84,0.00,CLR,SKC,0.00,WeatherDisplay:10.37,2013-01-02 10:00:00,
2013-01-02 05:05:00,19.4,15.4,29.04,North,0,0.0,0.0,84,0.00,CLR,SKC,0.00,WeatherDisplay:10.37,2013-01-02 10:05:00,
2013-01-02 05:10:00,19.2,15.5,29.04,North,0,0.0,0.0,85,0.00,CLR,SKC,0.00,WeatherDisplay:10.37,2013-01-02 10:10:00,
2013-01-02 05:15:00,19.2,15.5,29.04,North,0,0.0,0.0,85,0.00,CLR,SKC,0.00,WeatherDisplay:10.37,2013-01-02 10:15:00,
2013-01-02 05:20:00,19.2,15.7,29.04,North,0,0.0,0.0,86,0.00,CLR,SKC,0.00,WeatherDisplay:10.37,2013-01-02 10:20:00,
2013-01-02 05:25:00,19.0,15.5,29.05,SE,135,0.0,0.0,86,0.00,CLR,SKC,0.00,WeatherDisplay:10.37,2013-01-02 10:25:00,
2013-01-02 05:30:00,19.0,15.5,29.05,SE,135,0.0,0.0,86,0.00,CLR,SKC,0.00,WeatherDisplay:10.37,2013-01-02 10:30:00,
2013-01-02 05:35:00,19.0,15.5,29.05,SE,135,0.0,0.0,86,0.00,CLR,SKC,0.00,WeatherDisplay:10.37,2013-01-02 10:35:00,
2013-01-02 05:40:00,19.0,15.5,29.05,South,180,0.0,0.0,86,0.00,CLR,SKC,0.00,WeatherDisplay:10.37,2013-01-02 10:40:00,
2013-01-02 05:45:00,19.0,15.5,29.05,South,180,0.0,0.0,86,0.00,CLR,SKC,0.00,WeatherDisplay:10.37,2013-01-02 10:45:00,
2013-01-02 05:50:00,19.0,15.8,29.05,North,8,0.0,0.0,87,0.00,CLR,SKC,0.00,WeatherDisplay:10.37,2013-01-02 10:50:00,
2013-01-02 05:55:00,19.0,15.8,29.05,North,0,0.0,0.0,87,0.00,CLR,SKC,0.00,WeatherDisplay:10.37,2013-01-02 10:55:00,
2013-01-02 06:00:00,19.2,16.0,29.05,North,0,6.9,6.9,87,0.00,CLR,SKC,0.00,WeatherDisplay:10.37,2013-01-02 11:00:00,
2013-01-02 06:05:00,19.2,16.0,29.06,North,0,5.8,5.8,87,0.00,CLR,SKC,0.00,WeatherDisplay:10.37,2013-01-02 11:05:00,
2013-01-02 06:10:00,19.4,15.9,29.06,North,0,1.2,0.0,86,0.00,CLR,SKC,0.00,WeatherDisplay:10.37,2013-01-02 11:10:00,
2013-01-02 06:15:00,19.4,15.9,29.06,North,0,5.8,5.8,86,0.00,CLR,SKC,0.00,WeatherDisplay:10.37,2013-01-02 11:15:00,
2013-01-02 06:20:00,19.4,15.9,29.06,North,0,3.5,3.5,86,0.00,CLR,SKC,0.00,WeatherDisplay:10.37,2013-01-02 11:20:00,
2013-01-02 06:25:00,19.6,16.1,29.06,South,180,4.6,4.6,86,0.00,CLR,SKC,0.00,WeatherDisplay:10.37,2013-01-02 11:25:00,
2013-01-02 06:30:00,19.6,16.1,29.07,North,0,3.5,3.5,86,0.00,CLR,SKC,0.00,WeatherDisplay:10.37,2013-01-02 11:30:00,
2013-01-02 06:35:00,19.6,16.1,29.06,North,0,3.5,3.5,86,0.00,CLR,SKC,0.00,WeatherDisplay:10.37,2013-01-02 11:35:00,
2013-01-02 06:40:00,19.6,16.1,29.06,North,0,3.5,0.0,86,0.00,CLR,SKC,0.00,WeatherDisplay:10.37,2013-01-02 11:40:00,
2013-01-02 06:45:00,19.6,16.1,29.07,North,0,4.6,4.6,86,0.00,CLR,SKC,0.00,WeatherDisplay:10.37,2013-01-02 11:45:00,
2013-01-02 06:50:00,19.6,16.1,29.07,North,0,2.3,2.3,86,0.00,CLR,SKC,0.00,WeatherDisplay:10.37,2013-01-02 11:50:00,
2013-01-02 06:55:00,19.6,16.1,29.07,North,2,0.0,4.5,86,0.00,CLR,SKC,0.00,WeatherDisplay:10.37,2013-01-02 11:55:00,
2013-01-02 07:00:00,19.8,16.3,29.07,North,0,5.8,5.8,86,0.00,CLR,SKC,0.00,WeatherDisplay:10.37,2013-01-02 12:00:00,
2013-01-02 07:05:00,19.8,16.3,29.08,NW,315,5.8,5.8,86,0.00,CLR,SKC,0.00,WeatherDisplay:10.37,2013-01-02 12:05:00,
2013-01-02 07:10:00,19.8,16.3,29.08,NNE,14,5.8,5.8,86,0.00,CLR,SKC,0.00,WeatherDisplay:10.37,2013-01-02 12:10:00,
2013-01-02 07:15:00,19.8,16.3,29.08,North,0,5.8,5.8,86,0.00,CLR,SKC,0.00,WeatherDisplay:10.37,2013-01-02 12:15:00,
2013-01-02 07:20:00,19.8,16.3,29.08,North,0,8.1,8.1,86,0.00,CLR,SKC,0.00,WeatherDisplay:10.37,2013-01-02 12:20:00,
2013-01-02 07:25:00,19.8,16.3,29.08,North,0,5.8,5.8,86,0.00,CLR,SKC,0.00,WeatherDisplay:10.37,2013-01-02 12:25:00,
2013-01-02 07:30:00,19.6,16.1,29.09,North,0,3.5,3.5,86,0.00,CLR,SKC,0.00,WeatherDisplay:10.37,2013-01-02 12:30:00,
2013-01-02 07:35:00,19.6,16.1,29.09,West,270,6.9,6.9,86,0.00,CLR,SKC,0.00,WeatherDisplay:10.37,2013-01-02 12:35:00,
2013-01-02 07:40:00,19.4,15.9,29.09,North,1,8.1,8.1,86,0.00,CLR,SKC,0.00,WeatherDisplay:10.37,2013-01-02 12:40:00,
2013-01-02 07:45:00,19.4,16.2,29.09,North,0,6.9,6.9,87,0.00,CLR,SKC,0.00,WeatherDisplay:10.37,2013-01-02 12:45:00,
2013-01-02 07:50:00,19.2,16.0,29.09,North,1,3.5,3.5,87,0.00,CLR,SKC,0.00,WeatherDisplay:10.37,2013-01-02 12:50:00,
2013-01-02 07:55:00,18.9,15.6,29.09,North,0,0.0,3.1,87,0.00,CLR,SKC,0.00,WeatherDisplay:10.37,2013-01-02 12:55:00,
2013-01-02 08:00:00,18.7,15.5,29.10,NNE,16,0.0,0.0,87,0.00,CLR,SKC,0.00,WeatherDisplay:10.37,2013-01-02 13:00:00,
2013-01-02 08:05:00,18.7,15.5,29.10,North,0,0.0,0.0,87,0.00,CLR,SKC,0.00,WeatherDisplay:10.37,2013-01-02 13:05:00,
2013-01-02 08:10:00,18.5,15.5,29.10,North,0,3.5,3.5,88,0.00,CLR,SKC,0.00,WeatherDisplay:10.37,2013-01-02 13:10:00,
2013-01-02 08:15:00,18.3,15.4,29.10,North,0,4.6,4.6,88,0.00,CLR,SKC,0.00,WeatherDisplay:10.37,2013-01-02 13:15:00,
2013-01-02 08:20:00,18.3,15.4,29.10,North,0,4.6,4.6,88,0.00,CLR,SKC,0.00,WeatherDisplay:10.37,2013-01-02 13:20:00,
2013-01-02 08:25:00,18.3,15.4,29.10,North,8,3.5,3.5,88,0.00,CLR,SKC,0.00,WeatherDisplay:10.37,2013-01-02 13:25:00,
2013-01-02 08:30:00,18.3,15.4,29.11,North,0,4.6,4.6,88,0.00,CLR,SKC,0.00,WeatherDisplay:10.37,2013-01-02 13:30:00,
2013-01-02 08:35:00,18.3,15.1,29.11,North,0,8.1,8.1,87,0.00,CLR,SKC,0.00,WeatherDisplay:10.37,2013-01-02 13:35:00,
2013-01-02 08:40:00,18.5,15.3,29.11,North,0,3.5,0.0,87,0.00,CLR,SKC,0.00,WeatherDisplay:10.37,2013-01-02 13:40:00,
2013-01-02 08:45:00,18.5,15.3,29.10,North,8,0.0,0.0,87,0.00,CLR,SKC,0.00,WeatherDisplay:10.37,2013-01-02 13:45:00,
2013-01-02 08:50:00,18.7,15.2,29.10,NNE,14,3.5,0.0,86,0.00,CLR,SKC,0.00,WeatherDisplay:10.37,2013-01-02 13:50:00,
2013-01-02 08:55:00,18.7,15.2,29.10,South,180,4.6,4.6,86,0.00,CLR,SKC,0.00,WeatherDisplay:10.37,2013-01-02 13:55:00,
2013-01-02 09:00:00,18.9,15.1,29.11,North,0,8.1,8.1,85,0.00,CLR,SKC,0.00,WeatherDisplay:10.37,2013-01-02 14:00:00,
2013-01-02 09:05:00,18.9,15.1,29.11,North,0,8.1,8.1,85,0.00,CLR,SKC,0.00,WeatherDisplay:10.37,2013-01-02 14:05:00,
2013-01-02 09:10:00,19.6,15.5,29.11,South,180,2.3,2.3,84,0.00,CLR,SKC,0.00,WeatherDisplay:10.37,2013-01-02 14:10:00,
2013-01-02 09:15:00,19.8,15.7,29.12,North,0,5.8,5.8,84,0.00,CLR,SKC,0.00,WeatherDisplay:10.37,2013-01-02 14:15:00,
2013-01-02 09:20:00,19.8,15.7,29.12,South,180,3.5,3.5,84,0.00,CLR,SKC,0.00,WeatherDisplay:10.37,2013-01-02 14:20:00,
2013-01-02 09:25:00,19.9,15.6,29.12,NW,315,3.5,3.5,83,0.00,CLR,SKC,0.00,WeatherDisplay:10.37,2013-01-02 14:25:00,
2013-01-02 09:30:00,20.3,16.0,29.12,South,180,4.6,4.6,83,0.00,CLR,SKC,0.00,WeatherDisplay:10.37,2013-01-02 14:30:00,
2013-01-02 09:35:00,21.0,16.7,29.12,North,0,3.5,3.5,83,0.00,CLR,SKC,0.00,WeatherDisplay:10.37,2013-01-02 14:35:00,
2013-01-02 09:40:00,21.2,16.6,29.12,SE,135,5.8,5.8,82,0.00,CLR,SKC,0.00,WeatherDisplay:10.37,2013-01-02 14:40:00,
2013-01-02 09:45:00,21.2,16.3,29.12,South,180,3.5,3.5,81,0.00,CLR,SKC,0.00,WeatherDisplay:10.37,2013-01-02 14:45:00,
2013-01-02 09:50:00,21.4,16.5,29.13,SE,135,3.5,3.5,81,0.00,CLR,SKC,0.00,WeatherDisplay:10.37,2013-01-02 14:50:00,
2013-01-02 09:55:00,21.6,16.3,29.12,SE,135,3.5,0.0,80,0.00,CLR,SKC,0.00,WeatherDisplay:10.37,2013-01-02 14:55:00,
2013-01-02 10:00:00,21.9,16.7,29.12,South,180,1.2,0.0,80,0.00,CLR,SKC,0.00,WeatherDisplay:10.37,2013-01-02 15:00:00,
2013-01-02 10:05:00,21.9,16.7,29.14,South,180,0.0,0.0,80,0.00,CLR,SKC,0.00,WeatherDisplay:10.37,2013-01-02 15:05:00,
2013-01-02 10:10:00,22.6,16.8,29.13,West,270,5.8,5.8,78,0.00,CLR,SKC,0.00,WeatherDisplay:10.37,2013-01-02 15:10:00,
2013-01-02 10:15:00,23.2,17.6,29.13,South,180,3.5,0.0,79,0.00,CLR,SKC,0.00,WeatherDisplay:10.37,2013-01-02 15:15:00,
2013-01-02 10:20:00,24.4,18.3,29.12,South,180,3.5,0.0,77,0.00,CLR,SKC,0.00,WeatherDisplay:10.37,2013-01-02 15:20:00,
2013-01-02 10:25:00,23.9,17.7,29.12,North,0,6.9,6.9,77,0.00,CLR,SKC,0.00,WeatherDisplay:10.37,2013-01-02 15:25:00,
2013-01-02 10:30:00,24.6,18.4,29.12,South,180,6.9,6.9,77,0.00,CLR,SKC,0.00,WeatherDisplay:10.37,2013-01-02 15:30:00,
2013-01-02 16:31:00,25.3,16.6,29.12,NW,315,5.8,5.8,69,0.00,CLR,SKC,0.00,WeatherDisplay:10.37,2013-01-02 21:31:00,
2013-01-02 16:57:00,24.3,15.2,29.12,NW,315,5.8,5.8,68,0.00,CLR,SKC,0.00,WeatherDisplay:10.37,2013-01-02 21:57:00,
2013-01-02 17:02:00,24.1,15.4,29.12,North,0,3.5,3.5,69,0.00,CLR,SKC,0.00,WeatherDisplay:10.37,2013-01-02 22:02:00,
2013-01-02 17:07:00,23.7,15.0,29.12,North,0,5.4,5.4,69,0.00,CLR,SKC,0.00,WeatherDisplay:10.37,2013-01-02 22:07:00,
2013-01-02 17:12:00,23.5,14.9,29.12,North,0,4.6,4.6,69,0.00,CLR,SKC,0.00,WeatherDisplay:10.37,2013-01-02 22:12:00,
2013-01-02 17:17:00,23.4,15.0,29.12,North,0,2.3,0.0,70,0.00,CLR,SKC,0.00,WeatherDisplay:10.37,2013-01-02 22:17:00,
2013-01-02 17:22:00,23.0,14.7,29.12,North,0,2.3,0.0,70,0.00,CLR,SKC,0.00,WeatherDisplay:10.37,2013-01-02 22:22:00,
2013-01-02 17:27:00,23.0,14.7,29.12,North,0,3.5,3.5,70,0.00,CLR,SKC,0.00,WeatherDisplay:10.37,2013-01-02 22:27:00,
2013-01-02 17:32:00,22.8,14.8,29.12,North,0,5.8,5.8,71,0.00,CLR,SKC,0.00,WeatherDisplay:10.37,2013-01-02 22:32:00,
2013-01-02 17:37:00,22.6,14.6,29.12,North,0,3.5,3.5,71,0.00,CLR,SKC,0.00,WeatherDisplay:10.37,2013-01-02 22:37:00,
2013-01-02 17:42:00,22.5,14.5,29.12,North,0,2.3,0.0,71,0.00,CLR,SKC,0.00,WeatherDisplay:10.37,2013-01-02 22:42:00,
2013-01-02 17:47:00,22.3,14.3,29.12,North,0,0.0,0.0,71,0.00,CLR,SKC,0.00,WeatherDisplay:10.37,2013-01-02 22:47:00,
2013-01-02 17:52:00,22.1,14.4,29.12,North,0,0.0,0.0,72,0.00,CLR,SKC,0.00,WeatherDisplay:10.37,2013-01-02 22:52:00,
2013-01-02 17:57:00,22.1,14.4,29.12,North,0,2.3,2.3,72,0.00,CLR,SKC,0.00,WeatherDisplay:10.37,2013-01-02 22:57:00,
2013-01-02 18:02:00,22.1,14.4,29.13,North,0,2.3,2.3,72,0.00,CLR,SKC,0.00,WeatherDisplay:10.37,2013-01-02 23:02:00,
2013-01-02 18:07:00,22.1,14.4,29.13,North,0,2.3,2.3,72,0.00,CLR,SKC,0.00,WeatherDisplay:10.37,2013-01-02 23:07:00,
2013-01-02 18:12:00,21.6,13.9,29.13,North,0,0.0,0.0,72,0.00,CLR,SKC,0.00,WeatherDisplay:10.37,2013-01-02 23:12:00,
2013-01-02 18:17:00,21.4,14.1,29.13,North,0,0.0,0.0,73,0.00,CLR,SKC,0.00,WeatherDisplay:10.37,2013-01-02 23:17:00,
2013-01-02 18:22:00,21.2,13.9,29.13,North,8,0.0,0.0,73,0.00,CLR,SKC,0.00,WeatherDisplay:10.37,2013-01-02 23:22:00,
2013-01-02 18:27:00,21.2,14.2,29.13,North,0,0.0,0.0,74,0.00,CLR,SKC,0.00,WeatherDisplay:10.37,2013-01-02 23:27:00,
2013-01-02 18:32:00,21.0,14.0,29.13,North,0,0.0,0.0,74,0.00,CLR,SKC,0.00,WeatherDisplay:10.37,2013-01-02 23:32:00,
2013-01-02 18:37:00,20.8,13.9,29.13,North,0,0.0,0.0,74,0.00,CLR,SKC,0.00,WeatherDisplay:10.37,2013-01-02 23:37:00,
2013-01-02 18:42:00,20.7,13.7,29.13,South,180,0.0,0.0,74,0.00,CLR,SKC,0.00,WeatherDisplay:10.37,2013-01-02 23:42:00,
2013-01-02 18:47:00,20.7,14.0,29.13,North,0,0.0,0.0,75,0.00,CLR,SKC,0.00,WeatherDisplay:10.37,2013-01-02 23:47:00,
2013-01-02 18:52:00,20.7,14.0,29.14,South,180,0.0,0.0,75,0.00,CLR,SKC,0.00,WeatherDisplay:10.37,2013-01-02 23:52:00,
2013-01-02 18:57:00,20.8,13.9,29.14,North,0,3.5,3.5,74,0.00,CLR,SKC,0.00,WeatherDisplay:10.37,2013-01-02 23:57:00,
2013-01-02 19:02:00,20.8,13.9,29.14,North,0,3.5,3.5,74,0.00,CLR,SKC,0.00,WeatherDisplay:10.37,2013-01-03 00:02:00,
2013-01-02 19:07:00,20.8,13.9,29.14,North,0,3.5,3.5,74,0.00,CLR,SKC,0.00,WeatherDisplay:10.37,2013-01-03 00:07:00,
2013-01-02 19:12:00,21.0,13.7,29.14,North,0,3.5,3.5,73,0.00,CLR,SKC,0.00,WeatherDisplay:10.37,2013-01-03 00:12:00,
2013-01-02 19:17:00,21.0,14.0,29.14,North,0,3.5,3.5,74,0.00,CLR,SKC,0.00,WeatherDisplay:10.37,2013-01-03 00:17:00,
2013-01-02 19:22:00,21.0,14.0,29.15,North,0,3.5,3.5,74,0.00,CLR,SKC,0.00,WeatherDisplay:10.37,2013-01-03 00:22:00,
2013-01-02 19:27:00,21.0,13.7,29.15,North,0,0.0,0.0,73,0.00,CLR,SKC,0.00,WeatherDisplay:10.37,2013-01-03 00:27:00,
2013-01-02 19:32:00,21.0,14.0,29.15,North,0,4.6,4.6,74,0.00,CLR,SKC,0.00,WeatherDisplay:10.37,2013-01-03 00:32:00,
2013-01-02 19:37:00,21.0,14.0,29.15,NW,315,3.5,3.5,74,0.00,CLR,SKC,0.00,WeatherDisplay:10.37,2013-01-03 00:37:00,
2013-01-02 19:42:00,20.8,13.9,29.15,North,1,3.5,3.5,74,0.00,CLR,SKC,0.00,WeatherDisplay:10.37,2013-01-03 00:42:00,
2013-01-02 19:47:00,20.8,13.9,29.14,North,0,3.5,3.5,74,0.00,CLR,SKC,0.00,WeatherDisplay:10.37,2013-01-03 00:47:00,
2013-01-02 19:52:00,21.0,14.0,29.15,North,0,3.5,3.5,74,0.00,CLR,SKC,0.00,WeatherDisplay:10.37,2013-01-03 00:52:00,
2013-01-02 19:57:00,21.0,14.0,29.15,North,0,4.6,4.6,74,0.00,CLR,SKC,0.00,WeatherDisplay:10.37,2013-01-03 00:57:00,
2013-01-02 20:02:00,21.0,14.0,29.15,North,0,2.3,0.0,74,0.00,CLR,SKC,0.00,WeatherDisplay:10.37,2013-01-03 01:02:00,
2013-01-02 20:07:00,21.0,14.0,29.15,North,0,2.3,0.0,74,0.00,CLR,SKC,0.00,WeatherDisplay:10.37,2013-01-03 01:07:00,
2013-01-02 20:12:00,20.8,13.9,29.15,NW,315,3.5,3.5,74,0.00,CLR,SKC,0.00,WeatherDisplay:10.37,2013-01-03 01:12:00,
2013-01-02 20:17:00,20.7,13.7,29.14,North,0,0.0,0.0,74,0.00,CLR,SKC,0.00,WeatherDisplay:10.37,2013-01-03 01:17:00,
2013-01-02 20:22:00,20.7,13.7,29.15,North,0,0.0,0.0,74,0.00,CLR,SKC,0.00,WeatherDisplay:10.37,2013-01-03 01:22:00,
2013-01-02 20:27:00,20.3,13.6,29.15,North,0,0.0,0.0,75,0.00,CLR,SKC,0.00,WeatherDisplay:10.37,2013-01-03 01:27:00,
2013-01-02 20:32:00,20.1,13.5,29.15,North,0,0.0,0.0,75,0.00,CLR,SKC,0.00,WeatherDisplay:10.37,2013-01-03 01:32:00,
2013-01-02 20:38:00,20.1,13.5,29.15,SE,135,0.0,0.0,75,0.00,CLR,SKC,0.00,WeatherDisplay:10.37,2013-01-03 01:38:00,
2013-01-02 20:43:00,20.1,13.5,29.15,SE,135,0.0,0.0,75,0.00,CLR,SKC,0.00,WeatherDisplay:10.37,2013-01-03 01:43:00,
2013-01-02 20:48:00,19.9,13.9,29.15,North,0,0.0,0.0,77,0.00,CLR,SKC,0.00,WeatherDisplay:10.37,2013-01-03 01:48:00,
2013-01-02 20:53:00,19.9,13.9,29.15,North,0,0.0,0.0,77,0.00,CLR,SKC,0.00,WeatherDisplay:10.37,2013-01-03 01:53:00,
2013-01-02 20:58:00,19.9,13.6,29.16,North,0,2.3,2.3,76,0.00,CLR,SKC,0.00,WeatherDisplay:10.37,2013-01-03 01:58:00,
2013-01-02 21:03:00,19.9,13.6,29.16,North,0,2.3,2.3,76,0.00,CLR,SKC,0.00,WeatherDisplay:10.37,2013-01-03 02:03:00,
2013-01-02 21:08:00,20.1,13.8,29.16,North,0,2.3,0.0,76,0.00,CLR,SKC,0.00,WeatherDisplay:10.37,2013-01-03 02:08:00,
2013-01-02 21:13:00,19.9,13.9,29.16,North,0,0.0,0.0,77,0.00,CLR,SKC,0.00,WeatherDisplay:10.37,2013-01-03 02:13:00,
2013-01-02 21:18:00,19.9,13.6,29.16,North,0,0.0,0.0,76,0.00,CLR,SKC,0.00,WeatherDisplay:10.37,2013-01-03 02:18:00,
2013-01-02 21:23:00,19.8,13.7,29.16,NW,315,0.0,0.0,77,0.00,CLR,SKC,0.00,WeatherDisplay:10.37,2013-01-03 02:23:00,
2013-01-02 21:28:00,19.4,13.4,29.16,NW,315,0.0,0.0,77,0.00,CLR,SKC,0.00,WeatherDisplay:10.37,2013-01-03 02:28:00,
2013-01-02 21:33:00,19.4,13.4,29.16,North,0,0.0,0.0,77,0.00,CLR,SKC,0.00,WeatherDisplay:10.37,2013-01-03 02:33:00,
2013-01-02 21:38:00,19.0,13.0,29.16,North,0,0.0,0.0,77,0.00,CLR,SKC,0.00,WeatherDisplay:10.37,2013-01-03 02:38:00,
2013-01-02 21:43:00,18.9,12.8,29.16,North,0,0.0,0.0,77,0.00,CLR,SKC,0.00,WeatherDisplay:10.37,2013-01-03 02:43:00,
2013-01-02 21:48:00,18.7,13.0,29.17,East,90,0.0,0.0,78,0.00,CLR,SKC,0.00,WeatherDisplay:10.37,2013-01-03 02:48:00,
2013-01-02 21:53:00,18.7,13.2,29.17,SE,135,0.0,0.0,79,0.00,CLR,SKC,0.00,WeatherDisplay:10.37,2013-01-03 02:53:00,
2013-01-02 21:58:00,18.5,13.1,29.17,SE,135,0.0,0.0,79,0.00,CLR,SKC,0.00,WeatherDisplay:10.37,2013-01-03 02:58:00,
2013-01-02 22:03:00,18.5,13.4,29.16,SE,135,0.0,0.0,80,0.00,CLR,SKC,0.00,WeatherDisplay:10.37,2013-01-03 03:03:00,
2013-01-02 22:08:00,18.3,13.2,29.16,SE,135,0.0,0.0,80,0.00,CLR,SKC,0.00,WeatherDisplay:10.37,2013-01-03 03:08:00,
2013-01-02 22:13:00,18.3,13.2,29.16,SE,135,0.0,0.0,80,0.00,CLR,SKC,0.00,WeatherDisplay:10.37,2013-01-03 03:13:00,
2013-01-02 22:19:00,18.3,13.5,29.17,SE,135,0.0,0.0,81,0.00,CLR,SKC,0.00,WeatherDisplay:10.37,2013-01-03 03:19:00,
2013-01-02 22:24:00,18.1,13.3,29.17,SE,135,0.0,0.0,81,0.00,CLR,SKC,0.00,WeatherDisplay:10.37,2013-01-03 03:24:00,
2013-01-02 22:29:00,17.8,12.7,29.17,SE,135,0.0,0.0,80,0.00,CLR,SKC,0.00,WeatherDisplay:10.37,2013-01-03 03:29:00,
2013-01-02 22:35:00,17.6,12.5,29.17,SE,135,0.0,0.0,80,0.00,CLR,SKC,0.00,WeatherDisplay:10.37,2013-01-03 03:35:00,
2013-01-02 22:40:00,17.6,12.8,29.17,SE,135,0.0,0.0,81,0.00,CLR,SKC,0.00,WeatherDisplay:10.37,2013-01-03 03:40:00,
2013-01-02 22:46:00,17.6,12.8,29.18,SE,135,0.0,0.0,81,0.00,CLR,SKC,0.00,WeatherDisplay:10.37,2013-01-03 03:46:00,
2013-01-02 22:51:00,17.6,13.0,29.18,SE,135,0.0,0.0,82,0.00,CLR,SKC,0.00,WeatherDisplay:10.37,2013-01-03 03:51:00,
2013-01-02 22:56:00,17.6,13.0,29.18,SE,135,0.0,0.0,82,0.00,CLR,SKC,0.00,WeatherDisplay:10.37,2013-01-03 03:56:00,
2013-01-02 23:01:00,17.6,13.0,29.18,SE,135,0.0,0.0,82,0.00,CLR,SKC,0.00,WeatherDisplay:10.37,2013-01-03 04:01:00,
2013-01-02 23:06:00,17.6,13.0,29.17,SE,135,0.0,0.0,82,0.00,CLR,SKC,0.00,WeatherDisplay:10.37,2013-01-03 04:06:00,
2013-01-02 23:11:00,17.6,13.0,29.17,SE,135,0.0,0.0,82,0.00,CLR,SKC,0.00,WeatherDisplay:10.37,2013-01-03 04:11:00,
2013-01-02 23:16:00,17.6,13.0,29.17,SE,135,0.0,0.0,82,0.00,CLR,SKC,0.00,WeatherDisplay:10.37,2013-01-03 04:16:00,
2013-01-02 23:21:00,17.6,13.0,29.17,SE,135,0.0,0.0,82,0.00,CLR,SKC,0.00,WeatherDisplay:10.37,2013-01-03 04:21:00,
2013-01-02 23:26:00,17.6,13.0,29.17,NE,45,0.0,0.0,82,0.00,CLR,SKC,0.00,WeatherDisplay:10.37,2013-01-03 04:26:00,
2013-01-02 23:31:00,17.4,13.1,29.17,SE,135,0.0,0.0,83,0.00,CLR,SKC,0.00,WeatherDisplay:10.37,2013-01-03 04:31:00,
2013-01-02 23:36:00,17.2,13.2,29.16,SE,135,0.0,0.0,84,0.00,CLR,SKC,0.00,WeatherDisplay:10.37,2013-01-03 04:36:00,
2013-01-02 23:41:00,17.1,13.3,29.16,SE,135,0.0,0.0,85,0.00,CLR,SKC,0.00,WeatherDisplay:10.37,2013-01-03 04:41:00,
2013-01-02 23:46:00,16.9,13.4,29.16,SE,135,0.0,0.0,86,0.00,CLR,SKC,0.00,WeatherDisplay:10.37,2013-01-03 04:46:00,
2013-01-02 23:51:00,16.7,13.2,29.16,SE,135,0.0,0.0,86,0.00,CLR,SKC,0.00,WeatherDisplay:10.37,2013-01-03 04:51:00,
2013-01-02 23:56:00,16.5,13.3,29.16,SE,135,0.0,0.0,87,0.00,CLR,SKC,0.00,WeatherDisplay:10.37,2013-01-03 04:56:00,